Time;durP1;ratioP1;P1;durP2;ratioP2;P2;SDS_P1;SDS_P2;PMS_P1;PMS_P2;Temp;Humidity;BMP_temperature;BMP_pressure;BME280_temperature;BME280_humidity;BME280_pressure;Samples;Min_cycle;Max_cycle;Signal;HPM_P1;HPM_P2
2021/07/01 00:00:20;;;;;;;4.78;3.50;;;20.90;62.70;;;;;;5035645;28;20704;-66
2021/07/01 00:02:46;;;;;;;6.20;3.30;;;20.90;62.70;;;;;;5034881;28;20187;-66
2021/07/01 00:05:13;;;;;;;4.18;3.65;;;20.90;62.80;;;;;;5035340;28;20180;-67
2021/07/01 00:07:39;;;;;;;4.68;3.35;;;20.80;62.70;;;;;;5035517;28;20172;-67
2021/07/01 00:10:12;;;;;;;3.13;2.92;;;20.80;62.80;;;;;;5035224;28;20172;-67
2021/07/01 00:12:37;;;;;;;4.00;3.10;;;20.80;62.80;;;;;;5035032;28;20625;-66
2021/07/01 00:15:05;;;;;;;4.05;3.28;;;20.80;62.80;;;;;;5035388;28;20199;-66
2021/07/01 00:17:30;;;;;;;3.70;3.40;;;20.80;62.80;;;;;;5034938;28;20569;-67
2021/07/01 00:19:56;;;;;;;3.88;3.47;;;20.80;62.80;;;;;;5035208;28;20723;-67
2021/07/01 00:22:21;;;;;;;4.28;3.47;;;20.80;62.80;;;;;;5035481;28;20183;-67
2021/07/01 00:24:47;;;;;;;3.38;3.08;;;20.80;62.70;;;;;;5034623;28;20180;-67
2021/07/01 00:27:12;;;;;;;3.75;3.45;;;20.80;62.70;;;;;;5035019;28;20532;-67
2021/07/01 00:29:38;;;;;;;3.70;3.40;;;20.80;62.70;;;;;;5034985;28;20168;-67
2021/07/01 00:32:04;;;;;;;3.97;3.25;;;20.80;62.80;;;;;;5034647;28;20175;-66
2021/07/01 00:34:29;;;;;;;3.67;3.38;;;20.70;62.70;;;;;;5035375;28;20202;-66
2021/07/01 00:36:55;;;;;;;3.72;3.42;;;20.80;62.80;;;;;;5035295;28;20184;-66
2021/07/01 00:39:20;;;;;;;4.07;3.67;;;20.70;62.70;;;;;;5034299;28;20208;-67
2021/07/01 00:41:46;;;;;;;3.17;2.92;;;20.80;62.80;;;;;;5034744;28;20167;-66
2021/07/01 00:44:11;;;;;;;4.15;3.65;;;20.80;62.90;;;;;;5034942;28;20630;-67
2021/07/01 00:46:37;;;;;;;3.25;3.05;;;20.80;62.90;;;;;;5034208;28;20230;-66
2021/07/01 00:49:02;;;;;;;3.88;3.53;;;20.80;62.90;;;;;;5034782;28;20546;-66
2021/07/01 00:51:28;;;;;;;4.38;3.45;;;20.80;62.90;;;;;;5033943;28;20215;-66
2021/07/01 00:53:53;;;;;;;3.55;3.20;;;20.70;62.80;;;;;;5034410;28;20176;-66
2021/07/01 00:56:19;;;;;;;3.55;3.25;;;20.70;62.90;;;;;;5000901;28;20210;-67
2021/07/01 00:58:45;;;;;;;4.10;3.80;;;20.70;62.90;;;;;;5033816;28;20245;-66
2021/07/01 01:01:10;;;;;;;3.10;2.90;;;20.70;62.90;;;;;;5016704;28;20211;-66
2021/07/01 01:03:37;;;;;;;3.28;2.97;;;20.70;62.90;;;;;;5034511;28;20184;-67
2021/07/01 01:06:06;;;;;;;4.63;3.17;;;20.70;62.90;;;;;;5034211;28;20195;-66
2021/07/01 01:08:31;;;;;;;3.90;3.60;;;20.70;62.90;;;;;;5034225;28;20176;-68
2021/07/01 01:10:57;;;;;;;3.63;3.33;;;20.70;62.90;;;;;;5034561;28;20172;-67
2021/07/01 01:13:26;;;;;;;3.55;3.25;;;20.70;62.90;;;;;;5033873;28;20168;-66
2021/07/01 01:15:59;;;;;;;4.55;3.13;;;20.70;63.00;;;;;;5034191;28;20512;-67
2021/07/01 01:18:25;;;;;;;3.88;3.15;;;20.70;62.90;;;;;;5034593;28;20506;-66
2021/07/01 01:20:51;;;;;;;3.45;3.15;;;20.70;63.00;;;;;;5033553;28;20313;-68
2021/07/01 01:23:17;;;;;;;4.05;3.30;;;20.70;63.00;;;;;;5034079;28;20646;-67
2021/07/01 01:25:44;;;;;;;4.03;3.72;;;20.70;62.90;;;;;;5034065;28;20203;-67
2021/07/01 01:28:09;;;;;;;4.13;3.42;;;20.70;62.90;;;;;;5032907;28;20179;-67
2021/07/01 01:30:39;;;;;;;3.30;3.10;;;20.70;63.00;;;;;;5033757;28;20179;-66
2021/07/01 01:33:06;;;;;;;3.88;3.58;;;20.70;63.00;;;;;;5034235;28;20191;-66
2021/07/01 01:35:31;;;;;;;3.50;3.20;;;20.70;63.00;;;;;;5033107;28;20190;-67
2021/07/01 01:37:57;;;;;;;3.85;3.40;;;20.70;63.00;;;;;;5033966;28;20175;-67
2021/07/01 01:40:23;;;;;;;3.95;3.55;;;20.70;63.00;;;;;;5033768;28;20215;-67
2021/07/01 01:42:48;;;;;;;3.85;3.55;;;20.70;63.00;;;;;;5032776;28;20175;-66
2021/07/01 01:45:14;;;;;;;3.47;3.17;;;20.70;63.00;;;;;;5034134;28;20168;-67
2021/07/01 01:47:48;;;;;;;3.85;3.45;;;20.70;63.10;;;;;;5033039;28;20254;-68
2021/07/01 01:50:22;;;;;;;4.07;3.67;;;20.60;63.00;;;;;;5016588;28;20253;-66
2021/07/01 01:52:47;;;;;;;3.70;3.40;;;20.60;63.00;;;;;;5033505;28;20271;-67
2021/07/01 01:55:13;;;;;;;3.25;2.95;;;20.60;62.90;;;;;;5033806;28;20259;-66
2021/07/01 01:57:46;;;;;;;3.90;3.60;;;20.60;63.00;;;;;;5033314;28;20171;-66
2021/07/01 02:00:13;;;;;;;5.95;3.67;;;20.60;63.10;;;;;;5033633;28;20295;-66
2021/07/01 02:02:39;;;;;;;3.92;3.55;;;20.60;63.00;;;;;;5032624;28;20693;-67
2021/07/01 02:05:08;;;;;;;4.50;3.28;;;20.60;63.10;;;;;;5033290;28;20263;-67
2021/07/01 02:07:34;;;;;;;4.20;3.17;;;20.60;63.10;;;;;;5032986;28;20175;-67
2021/07/01 02:10:00;;;;;;;3.83;3.50;;;20.60;63.00;;;;;;5033041;28;20186;-67
2021/07/01 02:12:25;;;;;;;3.60;3.30;;;20.60;63.20;;;;;;5033318;28;20176;-67
2021/07/01 02:14:52;;;;;;;4.18;3.42;;;20.60;63.10;;;;;;5033198;28;20183;-67
2021/07/01 02:17:17;;;;;;;3.50;3.20;;;20.70;63.20;;;;;;5032736;28;20533;-67
2021/07/01 02:19:43;;;;;;;4.18;3.78;;;20.60;63.10;;;;;;5032825;28;20207;-67
2021/07/01 02:22:08;;;;;;;4.78;3.70;;;20.60;63.10;;;;;;5033209;28;20179;-67
2021/07/01 02:24:34;;;;;;;3.47;3.17;;;20.60;63.10;;;;;;5032047;28;20262;-67
2021/07/01 02:26:59;;;;;;;3.97;3.28;;;20.60;63.20;;;;;;5033338;28;20179;-68
2021/07/01 02:29:25;;;;;;;3.97;3.50;;;20.60;63.20;;;;;;5033060;28;20577;-66
2021/07/01 02:31:50;;;;;;;3.35;2.90;;;20.60;63.10;;;;;;5032111;28;20175;-66
2021/07/01 02:34:25;;;;;;;3.78;3.47;;;20.60;63.20;;;;;;5032962;28;20536;-66
2021/07/01 02:36:50;;;;;;;3.65;3.25;;;20.60;63.20;;;;;;5032466;28;20186;-66
2021/07/01 02:39:16;;;;;;;4.05;3.65;;;20.60;63.20;;;;;;5031719;28;20172;-67
2021/07/01 02:41:41;;;;;;;4.22;3.10;;;20.60;63.20;;;;;;5032871;28;20263;-67
2021/07/01 02:44:07;;;;;;;4.60;3.20;;;20.60;63.20;;;;;;5032607;28;20175;-67
2021/07/01 02:46:32;;;;;;;3.45;3.15;;;20.50;63.30;;;;;;5032375;28;20541;-67
2021/07/01 02:48:58;;;;;;;4.07;3.13;;;20.50;63.20;;;;;;5032912;28;20182;-66
2021/07/01 02:51:23;;;;;;;4.00;3.60;;;20.60;63.30;;;;;;5031998;28;20223;-67
2021/07/01 02:53:49;;;;;;;3.67;3.38;;;20.60;63.20;;;;;;5032259;28;20588;-67
2021/07/01 02:56:14;;;;;;;3.60;3.03;;;20.50;63.30;;;;;;5032668;28;20597;-67
2021/07/01 02:58:40;;;;;;;3.55;3.25;;;20.50;63.30;;;;;;5032115;28;20619;-67
2021/07/01 03:01:05;;;;;;;4.00;3.65;;;20.50;63.30;;;;;;5032532;28;20215;-66
2021/07/01 03:03:31;;;;;;;3.38;3.08;;;20.50;63.30;;;;;;5032521;28;20180;-67
2021/07/01 03:05:56;;;;;;;3.72;3.30;;;20.50;63.30;;;;;;5032219;28;20179;-67
2021/07/01 03:08:22;;;;;;;4.95;3.40;;;20.50;63.30;;;;;;5032651;28;20175;-67
2021/07/01 03:10:48;;;;;;;3.13;2.92;;;20.50;63.30;;;;;;5032504;28;20222;-67
2021/07/01 03:13:13;;;;;;;4.32;3.20;;;20.50;63.30;;;;;;5032312;28;20226;-66
2021/07/01 03:15:39;;;;;;;3.67;3.38;;;20.50;63.30;;;;;;5032195;28;20232;-67
2021/07/01 03:18:04;;;;;;;3.70;3.40;;;20.50;63.30;;;;;;5032620;28;20192;-66
2021/07/01 03:20:30;;;;;;;3.92;3.33;;;20.50;63.30;;;;;;5031452;28;20208;-67
2021/07/01 03:22:55;;;;;;;4.07;3.10;;;20.50;63.30;;;;;;5032644;28;20183;-67
2021/07/01 03:25:24;;;;;;;4.13;3.40;;;20.50;63.40;;;;;;5032567;28;20700;-67
2021/07/01 03:27:52;;;;;;;3.80;3.40;;;20.50;63.40;;;;;;5031545;28;20184;-67
2021/07/01 03:30:18;;;;;;;4.13;3.40;;;20.50;63.40;;;;;;5032477;28;20623;-66
2021/07/01 03:32:44;;;;;;;3.70;3.33;;;20.40;63.40;;;;;;5032238;28;20187;-67
2021/07/01 03:35:09;;;;;;;3.50;3.20;;;20.50;63.40;;;;;;5031571;28;20192;-67
2021/07/01 03:37:35;;;;;;;3.22;3.03;;;20.50;63.50;;;;;;5032276;28;20175;-67
2021/07/01 03:40:01;;;;;;;5.10;3.38;;;20.40;63.40;;;;;;5032501;28;20212;-68
2021/07/01 03:42:27;;;;;;;3.92;3.42;;;20.50;63.40;;;;;;5031883;28;20643;-67
2021/07/01 03:44:52;;;;;;;4.05;3.65;;;20.50;63.40;;;;;;5032065;28;20199;-67
2021/07/01 03:47:18;;;;;;;4.13;3.33;;;20.40;63.40;;;;;;5032266;28;20641;-67
2021/07/01 03:49:46;;;;;;;3.10;2.90;;;20.50;63.50;;;;;;5032305;28;20649;-67
2021/07/01 03:52:12;;;;;;;3.17;2.88;;;20.50;63.50;;;;;;5036524;28;20646;-67
2021/07/01 03:54:37;;;;;;;3.42;3.13;;;20.40;63.40;;;;;;5036096;28;20199;-68
2021/07/01 03:57:03;;;;;;;3.72;3.25;;;20.40;63.40;;;;;;5036313;28;20168;-67
2021/07/01 03:59:29;;;;;;;3.65;3.35;;;20.40;63.40;;;;;;5035925;28;20299;-68
2021/07/01 04:01:54;;;;;;;4.55;3.55;;;20.40;63.40;;;;;;5035263;28;20245;-66
2021/07/01 04:04:20;;;;;;;3.33;3.03;;;20.40;63.40;;;;;;5035497;28;20179;-67
2021/07/01 04:06:45;;;;;;;3.30;3.00;;;20.40;63.50;;;;;;5035391;28;20563;-67
2021/07/01 04:09:11;;;;;;;4.63;3.20;;;20.40;63.50;;;;;;5035140;28;20314;-67
2021/07/01 04:11:36;;;;;;;4.43;3.63;;;20.40;63.50;;;;;;5035057;28;20171;-67
2021/07/01 04:14:02;;;;;;;3.33;3.03;;;20.40;63.50;;;;;;5035638;28;20233;-66
2021/07/01 04:16:28;;;;;;;3.72;3.42;;;20.40;63.50;;;;;;5034863;28;20234;-67
2021/07/01 04:18:54;;;;;;;3.67;3.17;;;20.40;63.50;;;;;;5035061;28;20175;-68
2021/07/01 04:21:19;;;;;;;3.67;3.22;;;20.40;63.40;;;;;;5035362;28;20207;-67
2021/07/01 04:23:45;;;;;;;3.75;3.42;;;20.40;63.50;;;;;;5034568;28;20179;-67
2021/07/01 04:26:11;;;;;;;3.78;3.38;;;20.40;64.30;;;;;;5035473;28;20187;-67
2021/07/01 04:28:36;;;;;;;3.00;2.80;;;20.40;63.50;;;;;;5035087;28;20178;-68
2021/07/01 04:31:02;;;;;;;3.10;2.80;;;20.40;63.50;;;;;;5034642;28;20171;-67
2021/07/01 04:33:28;;;;;;;3.42;3.13;;;20.40;63.60;;;;;;5035246;28;20270;-67
2021/07/01 04:35:53;;;;;;;4.32;2.97;;;20.40;63.50;;;;;;5034989;28;20206;-67
2021/07/01 04:38:19;;;;;;;4.10;2.90;;;20.40;63.50;;;;;;5034616;28;20180;-67
2021/07/01 04:40:44;;;;;;;3.10;2.80;;;20.40;63.60;;;;;;5034706;28;20592;-67
2021/07/01 04:43:10;;;;;;;3.47;3.00;;;20.40;63.50;;;;;;5035141;28;20204;-67
2021/07/01 04:45:36;;;;;;;4.20;3.80;;;20.40;63.50;;;;;;5034010;28;20250;-68
2021/07/01 04:48:02;;;;;;;4.15;3.33;;;20.40;63.50;;;;;;5034887;28;20738;-68
2021/07/01 04:50:28;;;;;;;3.15;2.95;;;20.40;63.50;;;;;;5034615;28;20668;-67
2021/07/01 04:52:53;;;;;;;3.45;3.03;;;20.40;63.60;;;;;;5034050;28;20267;-67
2021/07/01 04:55:19;;;;;;;4.97;3.10;;;20.40;63.50;;;;;;5034899;28;20211;-66
2021/07/01 04:57:44;;;;;;;4.10;3.70;;;20.40;63.50;;;;;;5034005;28;20170;-67
2021/07/01 05:00:10;;;;;;;4.22;3.28;;;20.40;63.60;;;;;;5034445;28;20203;-66
2021/07/01 05:02:36;;;;;;;3.78;3.47;;;20.40;63.60;;;;;;5033219;28;20553;-66
2021/07/01 05:05:01;;;;;;;3.33;2.83;;;20.40;63.60;;;;;;5034368;28;20184;-67
2021/07/01 05:07:27;;;;;;;3.83;3.30;;;20.40;63.60;;;;;;5034446;28;20183;-67
2021/07/01 05:09:52;;;;;;;3.55;3.03;;;20.40;63.60;;;;;;5034265;28;20172;-68
2021/07/01 05:12:18;;;;;;;3.28;2.97;;;20.40;63.60;;;;;;5034106;28;20175;-68
2021/07/01 05:14:43;;;;;;;3.75;3.17;;;20.40;63.60;;;;;;5033856;28;20179;-66
2021/07/01 05:17:09;;;;;;;3.20;2.85;;;20.40;63.60;;;;;;5034342;28;20171;-67
2021/07/01 05:19:35;;;;;;;4.38;3.50;;;20.30;63.60;;;;;;5033762;28;20290;-68
2021/07/01 05:22:00;;;;;;;3.95;3.35;;;20.30;63.50;;;;;;5034178;28;20317;-67
2021/07/01 05:24:26;;;;;;;3.85;3.10;;;20.30;63.50;;;;;;5034417;28;20622;-69
2021/07/01 05:26:51;;;;;;;3.30;3.00;;;20.30;63.60;;;;;;5033147;28;20187;-66
2021/07/01 05:29:17;;;;;;;3.75;3.20;;;20.30;63.50;;;;;;5034607;28;20179;-66
2021/07/01 05:31:42;;;;;;;3.40;3.10;;;20.30;63.60;;;;;;5033916;28;20207;-66
2021/07/01 05:34:08;;;;;;;4.65;3.22;;;20.30;63.50;;;;;;5033543;28;20196;-66
2021/07/01 05:36:33;;;;;;;3.58;2.95;;;20.30;63.60;;;;;;5033914;28;20184;-66
2021/07/01 05:38:59;;;;;;;4.13;3.03;;;20.30;63.60;;;;;;5034131;28;20179;-69
2021/07/01 05:41:27;;;;;;;4.45;3.20;;;20.30;63.60;;;;;;5033220;28;20214;-67
2021/07/01 05:43:53;;;;;;;3.65;2.90;;;20.30;63.60;;;;;;5033004;28;20188;-67
2021/07/01 05:46:19;;;;;;;3.95;3.20;;;20.30;63.50;;;;;;5033959;28;20179;-67
2021/07/01 05:48:44;;;;;;;3.55;3.25;;;20.30;63.70;;;;;;5032979;28;20176;-67
2021/07/01 05:51:13;;;;;;;4.60;3.03;;;20.30;63.70;;;;;;5032773;28;20227;-67
2021/07/01 05:53:48;;;;;;;3.10;2.85;;;20.30;63.60;;;;;;5033461;28;20183;-67
2021/07/01 05:56:13;;;;;;;2.97;2.75;;;20.30;63.60;;;;;;5033622;28;20193;-66
2021/07/01 05:58:39;;;;;;;3.53;3.22;;;20.30;63.60;;;;;;5033359;28;20259;-67
2021/07/01 06:01:04;;;;;;;3.20;3.00;;;20.30;63.60;;;;;;5033031;28;20207;-67
2021/07/01 06:03:32;;;;;;;4.40;3.10;;;20.30;63.70;;;;;;5033310;28;20180;-66
2021/07/01 06:06:00;;;;;;;3.33;2.85;;;20.30;63.70;;;;;;5033405;28;20596;-68
2021/07/01 06:08:28;;;;;;;4.15;3.20;;;20.30;63.60;;;;;;4999553;28;20172;-68
2021/07/01 06:10:58;;;;;;;2.80;2.60;;;20.30;63.70;;;;;;5015397;28;20668;-67
2021/07/01 06:13:24;;;;;;;3.60;3.30;;;20.30;63.60;;;;;;5016335;28;20176;-67
2021/07/01 06:15:53;;;;;;;3.75;3.40;;;20.30;63.60;;;;;;4998546;28;20214;-66
2021/07/01 06:18:22;;;;;;;3.33;2.72;;;20.30;63.60;;;;;;5015872;28;20263;-67
2021/07/01 06:20:48;;;;;;;3.20;2.80;;;20.40;63.70;;;;;;5032894;28;20682;-67
2021/07/01 06:23:14;;;;;;;2.90;2.58;;;20.30;63.60;;;;;;5014705;28;20180;-67
2021/07/01 06:25:40;;;;;;;3.72;2.92;;;20.30;63.60;;;;;;5032731;28;20179;-67
2021/07/01 06:28:05;;;;;;;3.00;2.75;;;20.30;63.50;;;;;;5015741;28;20174;-66
2021/07/01 06:30:31;;;;;;;3.13;2.83;;;20.30;63.60;;;;;;5032262;28;20237;-67
2021/07/01 06:32:57;;;;;;;3.33;3.03;;;20.30;63.60;;;;;;5033178;28;20172;-66
2021/07/01 06:35:23;;;;;;;2.92;2.63;;;20.30;63.60;;;;;;5033108;28;20168;-66
2021/07/01 06:37:50;;;;;;;3.03;2.63;;;20.30;63.60;;;;;;5031994;28;20188;-67
2021/07/01 06:40:16;;;;;;;3.60;3.10;;;20.30;63.60;;;;;;5032870;28;20211;-67
2021/07/01 06:42:47;;;;;;;3.50;2.83;;;20.30;63.60;;;;;;5032503;28;20550;-67
2021/07/01 06:45:13;;;;;;;3.40;2.70;;;20.30;63.60;;;;;;5032413;28;20195;-67
2021/07/01 06:47:39;;;;;;;3.75;2.83;;;20.30;63.60;;;;;;5032590;28;20172;-66
2021/07/01 06:50:05;;;;;;;3.72;2.85;;;20.30;63.60;;;;;;4998421;28;20656;-67
2021/07/01 06:52:31;;;;;;;3.20;2.90;;;20.30;63.60;;;;;;5032292;28;20173;-67
2021/07/01 06:54:56;;;;;;;3.22;2.80;;;20.30;63.70;;;;;;4998941;28;20195;-67
2021/07/01 06:57:22;;;;;;;3.58;2.60;;;20.30;63.70;;;;;;5032222;28;20626;-67
2021/07/01 06:59:47;;;;;;;4.20;2.65;;;20.30;63.80;;;;;;5032446;28;20222;-66
2021/07/01 07:02:13;;;;;;;3.38;2.65;;;20.30;63.70;;;;;;5015563;28;20164;-67
2021/07/01 07:04:38;;;;;;;3.88;3.03;;;20.30;63.80;;;;;;5014545;28;20175;-67
2021/07/01 07:07:05;;;;;;;2.45;2.25;;;20.30;63.80;;;;;;5014405;28;20646;-67
2021/07/01 07:09:30;;;;;;;4.05;2.90;;;20.30;63.80;;;;;;5032283;28;20202;-67
2021/07/01 07:11:55;;;;;;;2.70;2.50;;;20.30;63.70;;;;;;5031807;28;20634;-67
2021/07/01 07:14:21;;;;;;;3.20;2.90;;;20.30;63.90;;;;;;5032788;28;20179;-67
2021/07/01 07:16:47;;;;;;;3.72;3.10;;;20.30;63.90;;;;;;5032483;28;20175;-68
2021/07/01 07:19:12;;;;;;;4.35;3.13;;;20.30;63.90;;;;;;4997866;28;20203;-66
2021/07/01 07:21:47;;;;;;;3.83;2.60;;;20.30;63.80;;;;;;4998424;28;20188;-67
2021/07/01 07:24:17;;;;;;;2.90;2.65;;;20.30;63.90;;;;;;5031866;28;20187;-67
2021/07/01 07:26:43;;;;;;;3.17;2.88;;;20.30;63.90;;;;;;5035434;28;20649;-68
2021/07/01 07:29:09;;;;;;;2.97;2.78;;;20.30;63.90;;;;;;5036531;28;20179;-67
2021/07/01 07:31:38;;;;;;;5.38;3.00;;;20.30;64.00;;;;;;5036172;28;20226;-66
2021/07/01 07:34:04;;;;;;;9.18;3.60;;;20.30;63.90;;;;;;5018208;28;20179;-74
2021/07/01 07:36:30;;;;;;;4.15;2.80;;;20.30;64.20;;;;;;5036202;28;20183;-76
2021/07/01 07:38:55;;;;;;;4.60;3.47;;;20.30;64.10;;;;;;5036267;28;20179;-67
2021/07/01 07:41:21;;;;;;;5.20;3.20;;;20.30;64.10;;;;;;5035275;28;20253;-67
2021/07/01 07:43:47;;;;;;;5.35;3.15;;;20.30;64.10;;;;;;5035974;28;20214;-66
2021/07/01 07:46:13;;;;;;;6.22;4.10;;;20.30;64.20;;;;;;5036143;28;20226;-67
2021/07/01 07:48:39;;;;;;;5.60;3.80;;;20.30;64.20;;;;;;5034895;28;20179;-67
2021/07/01 07:51:05;;;;;;;3.97;3.22;;;20.30;64.20;;;;;;5035872;28;20289;-67
2021/07/01 07:53:32;;;;;;;4.90;2.90;;;20.30;64.30;;;;;;5001171;28;20172;-67
2021/07/01 07:56:04;;;;;;;4.10;3.63;;;20.30;64.30;;;;;;5035613;28;20258;-67
2021/07/01 07:58:31;;;;;;;4.75;3.78;;;20.30;64.30;;;;;;5035884;28;20171;-68
2021/07/01 08:00:57;;;;;;;6.18;3.72;;;20.30;64.30;;;;;;5035696;28;20216;-67
2021/07/01 08:03:22;;;;;;;5.50;4.15;;;20.30;64.30;;;;;;5035630;28;20195;-66
2021/07/01 08:05:48;;;;;;;4.00;3.60;;;20.30;64.20;;;;;;5017872;28;20258;-67
2021/07/01 08:08:15;;;;;;;5.60;3.58;;;20.30;64.30;;;;;;5017256;28;20310;-67
2021/07/01 08:10:41;;;;;;;4.18;3.78;;;20.20;64.30;;;;;;5035554;28;20180;-68
2021/07/01 08:13:07;;;;;;;5.40;3.72;;;20.30;64.40;;;;;;5017912;28;20225;-67
2021/07/01 08:15:37;;;;;;;6.03;3.65;;;20.30;64.30;;;;;;5034635;28;20172;-66
2021/07/01 08:18:03;;;;;;;6.57;3.95;;;20.30;64.30;;;;;;5035625;28;20668;-66
2021/07/01 08:20:29;;;;;;;4.95;3.33;;;20.20;64.30;;;;;;5035395;28;20271;-68
2021/07/01 08:22:54;;;;;;;4.90;3.83;;;20.30;64.40;;;;;;5034616;28;20175;-67
2021/07/01 08:25:21;;;;;;;4.70;3.75;;;20.20;64.30;;;;;;5035333;28;20187;-66
2021/07/01 08:27:48;;;;;;;6.30;4.00;;;20.30;64.40;;;;;;5035128;28;20172;-65
2021/07/01 08:30:19;;;;;;;4.88;3.60;;;20.20;64.40;;;;;;5034566;28;20190;-66
2021/07/01 08:32:47;;;;;;;6.35;3.90;;;20.20;64.50;;;;;;5034987;28;20176;-66
2021/07/01 08:35:13;;;;;;;6.05;4.45;;;20.20;64.50;;;;;;5035068;28;20183;-67
2021/07/01 08:37:43;;;;;;;5.40;3.70;;;20.20;64.70;;;;;;5034290;28;20180;-66
2021/07/01 08:40:09;;;;;;;6.97;3.65;;;20.30;64.40;;;;;;5017808;28;20254;-65
2021/07/01 08:42:36;;;;;;;6.85;4.13;;;20.30;64.30;;;;;;5000627;28;20176;-66
2021/07/01 08:45:07;;;;;;;5.55;4.35;;;20.30;64.30;;;;;;5034728;28;20657;-66
2021/07/01 08:47:34;;;;;;;5.35;4.00;;;20.30;64.50;;;;;;5034905;28;20233;-66
2021/07/01 08:50:11;;;;;;;9.27;4.80;;;20.30;64.50;;;;;;5034377;28;20183;-66
2021/07/01 08:52:44;;;;;;;5.35;4.22;;;20.30;64.50;;;;;;5034820;28;20183;-66
2021/07/01 08:55:10;;;;;;;6.35;4.20;;;20.30;64.50;;;;;;5017303;28;20217;-65
2021/07/01 08:57:36;;;;;;;6.05;4.63;;;20.30;65.50;;;;;;4999815;28;20200;-66
2021/07/01 09:00:14;;;;;;;8.05;4.20;;;20.30;64.70;;;;;;5034675;28;20220;-65
2021/07/01 09:02:41;;;;;;;5.53;4.10;;;20.30;64.70;;;;;;5034336;28;20611;-66
2021/07/01 09:05:12;;;;;;;5.32;4.47;;;20.30;64.70;;;;;;5034080;28;20179;-66
2021/07/01 09:07:38;;;;;;;7.35;5.05;;;20.30;64.60;;;;;;5034556;28;20167;-66
2021/07/01 09:10:08;;;;;;;8.10;5.32;;;20.30;64.60;;;;;;5034608;28;20661;-67
2021/07/01 09:12:34;;;;;;;5.68;4.07;;;20.30;64.50;;;;;;5033353;28;20172;-66
2021/07/01 09:15:01;;;;;;;8.18;4.65;;;20.30;64.60;;;;;;5017007;28;20172;-66
2021/07/01 09:17:29;;;;;;;6.72;5.30;;;20.30;64.60;;;;;;5034595;28;20366;-66
2021/07/01 09:19:56;;;;;;;6.75;5.18;;;20.30;64.50;;;;;;5033708;28;20300;-66
2021/07/01 09:22:22;;;;;;;7.75;4.53;;;20.30;64.50;;;;;;5034360;28;20180;-66
2021/07/01 09:24:51;;;;;;;7.78;5.25;;;20.30;64.40;;;;;;5033685;28;20176;-66
2021/07/01 09:27:17;;;;;;;8.43;4.90;;;20.30;64.50;;;;;;5033915;28;20652;-66
2021/07/01 09:29:44;;;;;;;10.18;5.25;;;20.30;64.40;;;;;;5034122;28;20180;-66
2021/07/01 09:32:10;;;;;;;7.15;5.22;;;20.30;64.50;;;;;;5033521;28;20208;-66
2021/07/01 09:34:36;;;;;;;7.75;5.45;;;20.40;64.50;;;;;;5033689;28;20187;-66
2021/07/01 09:37:02;;;;;;;10.65;6.40;;;20.40;64.30;;;;;;5000399;28;20696;-66
2021/07/01 09:39:27;;;;;;;13.25;7.05;;;20.30;64.30;;;;;;5033339;28;20188;-65
2021/07/01 09:41:57;;;;;;;9.63;6.60;;;20.30;64.60;;;;;;4999646;28;20191;-66
2021/07/01 09:44:23;;;;;;;9.15;6.72;;;20.30;64.60;;;;;;5033998;28;20179;-66
2021/07/01 09:46:49;;;;;;;9.88;6.13;;;20.30;64.60;;;;;;4998863;28;20176;-66
2021/07/01 09:49:20;;;;;;;9.25;6.90;;;20.30;64.70;;;;;;5033480;28;20176;-65
2021/07/01 09:51:47;;;;;;;8.02;5.60;;;20.30;64.70;;;;;;5033298;28;20307;-64
2021/07/01 09:54:13;;;;;;;10.30;6.70;;;20.30;64.50;;;;;;5036500;28;20214;-66
2021/07/01 09:56:41;;;;;;;10.57;6.00;;;20.30;64.60;;;;;;4999436;28;20218;-66
2021/07/01 09:59:14;;;;;;;9.38;6.10;;;20.30;64.60;;;;;;5033774;28;20179;-65
2021/07/01 10:01:41;;;;;;;8.60;6.50;;;20.30;64.60;;;;;;5015140;28;20243;-65
2021/07/01 10:04:08;;;;;;;12.10;6.55;;;20.30;64.50;;;;;;5016035;28;20509;-66
2021/07/01 10:06:33;;;;;;;10.55;7.18;;;20.40;64.40;;;;;;5033219;28;20203;-66
2021/07/01 10:08:59;;;;;;;8.65;6.45;;;20.40;64.70;;;;;;5015122;28;20199;-66
2021/07/01 10:11:32;;;;;;;8.80;6.63;;;20.40;64.80;;;;;;5033561;28;20172;-66
2021/07/01 10:13:57;;;;;;;10.65;6.65;;;20.40;64.90;;;;;;5033247;28;20653;-67
2021/07/01 10:16:29;;;;;;;10.55;6.75;;;20.40;64.50;;;;;;4998805;28;20183;-67
2021/07/01 10:18:55;;;;;;;10.85;6.55;;;20.40;64.70;;;;;;5033223;28;20176;-67
2021/07/01 10:21:20;;;;;;;11.23;6.63;;;20.40;64.70;;;;;;4998458;28;20213;-66
2021/07/01 10:23:49;;;;;;;10.02;6.35;;;20.30;64.60;;;;;;5015490;28;20168;-66
2021/07/01 10:26:16;;;;;;;10.32;6.20;;;20.40;64.70;;;;;;5033098;28;20538;-66
2021/07/01 10:28:41;;;;;;;10.52;6.40;;;20.40;64.60;;;;;;5032302;28;20186;-66
2021/07/01 10:31:13;;;;;;;8.32;5.45;;;20.40;64.60;;;;;;4999208;28;20175;-65
2021/07/01 10:33:40;;;;;;;9.18;6.22;;;20.40;64.60;;;;;;5031950;28;20656;-66
2021/07/01 10:36:13;;;;;;;11.65;6.95;;;20.40;64.60;;;;;;5032282;28;20200;-66
2021/07/01 10:38:43;;;;;;;8.93;6.07;;;20.40;64.50;;;;;;5015233;28;20583;-67
2021/07/01 10:41:09;;;;;;;8.10;6.07;;;20.40;64.50;;;;;;5033000;28;20243;-66
2021/07/01 10:43:54;;;;;;;6.93;6.20;;;20.40;65.30;;;;;;5032046;28;20715;-66
2021/07/01 10:46:20;;;;;;;10.35;6.78;;;20.40;64.40;;;;;;5032481;28;20184;-66
2021/07/01 10:48:55;;;;;;;11.75;6.28;;;20.40;64.50;;;;;;5015008;28;20172;-66
2021/07/01 10:51:20;;;;;;;8.95;5.68;;;20.40;64.50;;;;;;5032076;28;20226;-66
2021/07/01 10:53:46;;;;;;;8.70;6.10;;;20.40;64.60;;;;;;5014976;28;20280;-68
2021/07/01 10:56:20;;;;;;;10.05;6.15;;;20.40;64.50;;;;;;5032927;28;20175;-67
2021/07/01 10:58:53;;;;;;;14.70;7.72;;;20.40;64.50;;;;;;5031914;28;20175;-67
2021/07/01 11:01:26;;;;;;;14.25;7.70;;;20.40;64.70;;;;;;5032491;28;20245;-66
2021/07/01 11:04:10;;;;;;;14.02;8.20;;;20.40;64.90;;;;;;5031843;28;20178;-66
2021/07/01 11:06:38;;;;;;;13.57;7.80;;;20.40;65.70;;;;;;5032519;28;20283;-67
2021/07/01 11:09:05;;;;;;;16.25;8.75;;;20.40;65.40;;;;;;5032704;28;20172;-67
2021/07/01 11:11:33;;;;;;;13.55;8.63;;;20.40;65.40;;;;;;5031495;28;20218;-66
2021/07/01 11:14:09;;;;;;;15.23;8.40;;;20.40;65.40;;;;;;5032875;28;20176;-67
2021/07/01 11:16:41;;;;;;;13.38;7.78;;;20.30;65.30;;;;;;5032560;28;20182;-66
2021/07/01 11:19:11;;;;;;;11.98;7.80;;;20.40;65.40;;;;;;5032132;28;20206;-67
2021/07/01 11:21:39;;;;;;;11.07;6.80;;;20.40;65.40;;;;;;5032400;28;20215;-68
2021/07/01 11:24:31;;;;;;;9.68;7.10;;;20.40;65.20;;;;;;5014912;28;20242;-66
2021/07/01 11:26:58;;;;;;;10.15;7.25;;;20.40;65.30;;;;;;5029008;28;20215;-65
2021/07/01 11:29:43;;;;;;;10.52;6.88;;;20.40;65.20;;;;;;5032472;28;20665;-66
2021/07/01 11:32:24;;;;;;;11.48;7.45;;;20.40;65.30;;;;;;5031717;28;20191;-65
2021/07/01 11:34:50;;;;;;;16.58;7.90;;;20.40;65.20;;;;;;5032110;28;20645;-66
2021/07/01 11:37:30;;;;;;;11.63;6.70;;;20.40;65.20;;;;;;5032507;28;20180;-66
2021/07/01 11:39:57;;;;;;;11.65;7.10;;;20.40;65.10;;;;;;5031516;28;20739;-68
2021/07/01 11:42:22;;;;;;;13.45;7.28;;;20.40;65.10;;;;;;4998439;28;20227;-66
2021/07/01 11:44:48;;;;;;;9.55;6.88;;;20.40;65.30;;;;;;4998051;28;20204;-75
2021/07/01 11:47:13;;;;;;;12.50;6.13;;;20.40;65.20;;;;;;4998031;28;20183;-74
2021/07/01 11:49:39;;;;;;;12.55;7.03;;;20.40;65.10;;;;;;5014597;28;20176;-76
2021/07/01 11:52:05;;;;;;;9.63;6.78;;;20.40;65.20;;;;;;4998222;28;20224;-72
2021/07/01 11:54:30;;;;;;;9.15;6.43;;;20.50;65.20;;;;;;5031251;28;20689;-74
2021/07/01 11:56:58;;;;;;;14.27;7.22;;;20.50;65.30;;;;;;4998387;28;20631;-71
2021/07/01 11:59:33;;;;;;;11.25;6.63;;;20.60;65.30;;;;;;5032038;28;20184;-71
2021/07/01 12:02:02;;;;;;;9.80;6.88;;;20.50;65.20;;;;;;5032312;28;20175;-71
2021/07/01 12:04:34;;;;;;;11.07;6.38;;;20.50;65.20;;;;;;5032300;28;20267;-65
2021/07/01 12:07:06;;;;;;;11.15;6.80;;;20.50;65.10;;;;;;5031454;28;20267;-65
2021/07/01 12:09:33;;;;;;;10.52;6.30;;;20.60;65.30;;;;;;5031745;28;20245;-65
2021/07/01 12:12:05;;;;;;;13.15;6.10;;;20.50;65.00;;;;;;5001160;28;20180;-64
2021/07/01 12:14:31;;;;;;;14.77;7.13;;;20.50;64.90;;;;;;5034924;28;20249;-64
2021/07/01 12:16:57;;;;;;;11.18;6.57;;;20.50;64.70;;;;;;5035748;28;20176;-64
2021/07/01 12:19:45;;;;;;;10.02;6.55;;;20.60;65.00;;;;;;5035595;28;20664;-65
2021/07/01 12:22:49;;;;;;;13.32;7.95;;;20.60;65.00;;;;;;5034698;28;20194;-66
2021/07/01 12:25:21;;;;;;;14.23;7.82;;;20.60;65.00;;;;;;5031979;28;20254;-65
2021/07/01 12:28:10;;;;;;;11.75;7.13;;;20.60;64.90;;;;;;5034514;28;20188;-66
2021/07/01 12:30:53;;;;;;;14.82;7.22;;;20.50;65.10;;;;;;5023051;28;20190;-64
2021/07/01 12:33:31;;;;;;;12.88;7.63;;;20.50;65.10;;;;;;5035399;28;20572;-64
2021/07/01 12:36:22;;;;;;;12.85;6.95;;;20.60;65.10;;;;;;5034432;28;20274;-65
2021/07/01 12:39:06;;;;;;;15.18;7.70;;;20.60;65.20;;;;;;5034838;28;20175;-65
2021/07/01 12:41:36;;;;;;;13.40;7.28;;;20.60;65.00;;;;;;5035001;28;20298;-65
2021/07/01 12:44:08;;;;;;;13.88;6.97;;;20.60;64.90;;;;;;5034433;28;20257;-65
2021/07/01 12:46:43;;;;;;;12.32;7.82;;;20.60;64.80;;;;;;5035025;28;20176;-65